createdAt,value
2023-01-25T00:01:49.355Z,33.40
2023-01-25T00:04:17.260Z,29.10
2023-01-25T00:06:45.033Z,31.10
2023-01-25T00:09:14.113Z,35.10
2023-01-25T00:11:43.136Z,36.47
2023-01-25T00:14:16.990Z,33.27
2023-01-25T00:16:47.221Z,30.63
2023-01-25T00:19:14.985Z,30.40
2023-01-25T00:21:43.436Z,33.70
2023-01-25T00:24:12.025Z,32.50
2023-01-25T00:26:40.554Z,32.10
2023-01-25T00:29:14.596Z,30.90
2023-01-25T00:32:05.995Z,36.33
2023-01-25T00:34:50.556Z,36.70
2023-01-25T00:37:51.604Z,31.67
2023-01-25T00:40:19.974Z,33.50
2023-01-25T00:42:47.634Z,30.60
2023-01-25T00:45:19.253Z,31.50
2023-01-25T00:47:47.029Z,25.77
2023-01-25T00:50:14.898Z,35.57
2023-01-25T00:52:42.674Z,29.80
2023-01-25T00:55:10.711Z,29.97
2023-01-25T00:57:38.763Z,30.40
2023-01-25T01:00:08.445Z,31.60
2023-01-25T01:02:36.755Z,36.43
2023-01-25T01:05:04.990Z,31.03
2023-01-25T01:07:33.211Z,31.93
2023-01-25T01:10:00.963Z,31.10
2023-01-25T01:12:28.969Z,34.90
2023-01-25T01:14:56.908Z,34.40
2023-01-25T01:17:24.613Z,36.17
2023-01-25T01:19:52.529Z,33.07
2023-01-25T01:22:20.298Z,35.73
2023-01-25T01:24:49.836Z,30.43
2023-01-25T01:27:17.632Z,31.20
2023-01-25T01:29:46.304Z,28.30
2023-01-25T01:32:16.537Z,37.10
2023-01-25T01:34:44.706Z,28.00
2023-01-25T01:37:13.671Z,29.30
2023-01-25T01:39:41.785Z,29.03
2023-01-25T01:42:09.573Z,35.00
2023-01-25T01:44:54.569Z,33.67
2023-01-25T01:47:46.172Z,29.00
2023-01-25T01:50:26.507Z,31.50
2023-01-25T01:52:55.005Z,33.80
2023-01-25T01:55:24.449Z,29.00
2023-01-25T01:58:00.051Z,28.70
2023-01-25T02:00:41.401Z,33.73
2023-01-25T02:03:14.454Z,32.10
2023-01-25T02:06:07.805Z,38.07
2023-01-25T02:08:37.233Z,28.80
2023-01-25T02:11:10.170Z,30.80
2023-01-25T02:13:40.717Z,31.30
2023-01-25T02:16:23.068Z,36.30
2023-01-25T02:18:52.011Z,29.20
2023-01-25T02:21:19.790Z,36.70
2023-01-25T02:24:24.191Z,34.37
2023-01-25T02:26:52.550Z,33.20
2023-01-25T02:29:24.228Z,37.10
2023-01-25T02:32:05.640Z,31.33
2023-01-25T02:34:35.830Z,36.80
2023-01-25T02:37:04.509Z,35.93
2023-01-25T02:39:32.346Z,30.57
2023-01-25T02:42:00.628Z,29.80
2023-01-25T02:44:34.604Z,27.33
2023-01-25T02:47:04.767Z,34.40
2023-01-25T02:49:38.875Z,37.03
2023-01-25T02:52:09.002Z,30.13
2023-01-25T02:54:37.255Z,36.57
2023-01-25T02:57:08.411Z,33.77
2023-01-25T02:59:43.786Z,36.37
2023-01-25T03:02:14.309Z,35.77
2023-01-25T03:04:42.714Z,31.47
2023-01-25T03:07:10.486Z,32.17
2023-01-25T03:09:38.352Z,33.77
2023-01-25T03:12:06.993Z,35.47
2023-01-25T03:14:35.368Z,37.50
2023-01-25T03:17:03.745Z,34.10
2023-01-25T03:19:31.625Z,27.10
2023-01-25T03:21:59.550Z,33.53
2023-01-25T03:24:28.863Z,33.60
2023-01-25T03:27:12.050Z,35.53
2023-01-25T03:29:46.340Z,37.67
2023-01-25T03:32:22.454Z,31.67
2023-01-25T03:34:50.275Z,37.83
2023-01-25T03:37:19.864Z,33.43
2023-01-25T03:39:49.379Z,36.80
2023-01-25T03:42:22.594Z,33.07
2023-01-25T03:44:55.322Z,34.43
2023-01-25T03:47:24.762Z,31.83
2023-01-25T03:49:52.905Z,34.87
2023-01-25T03:52:20.923Z,34.03
2023-01-25T03:54:49.295Z,29.40
2023-01-25T03:57:17.009Z,36.77
2023-01-25T03:59:52.054Z,42.17
2023-01-25T04:02:21.416Z,30.83
2023-01-25T04:05:04.015Z,33.90
2023-01-25T04:07:35.306Z,34.17
2023-01-25T04:10:06.747Z,31.53
2023-01-25T04:12:36.007Z,34.10
2023-01-25T04:15:04.122Z,31.23
2023-01-25T04:17:32.298Z,36.83
2023-01-25T04:20:03.391Z,40.43
2023-01-25T04:22:38.229Z,32.73
2023-01-25T04:25:08.405Z,31.03
2023-01-25T04:27:39.436Z,35.63
2023-01-25T04:30:12.787Z,34.77
2023-01-25T04:32:41.810Z,35.63
2023-01-25T04:35:23.705Z,31.63
2023-01-25T04:38:00.654Z,35.83
2023-01-25T04:40:40.284Z,35.23
2023-01-25T04:43:08.279Z,34.03
2023-01-25T04:45:36.856Z,30.80
2023-01-25T04:48:13.897Z,30.40
2023-01-25T04:50:49.419Z,30.97
2023-01-25T04:53:19.852Z,32.50
2023-01-25T04:55:48.936Z,34.00
2023-01-25T04:58:17.437Z,29.83
2023-01-25T05:00:46.173Z,32.37
2023-01-25T05:03:14.100Z,32.77
2023-01-25T05:05:49.192Z,30.23
2023-01-25T05:08:22.632Z,34.03
2023-01-25T05:10:53.866Z,30.20
2023-01-25T05:13:47.860Z,31.80
2023-01-25T05:16:24.770Z,29.40
2023-01-25T05:18:57.721Z,35.97
2023-01-25T05:21:53.047Z,27.70
2023-01-25T05:24:20.943Z,33.97
2023-01-25T05:27:03.428Z,30.53
2023-01-25T05:29:49.722Z,36.30
2023-01-25T05:32:24.300Z,35.20
2023-01-25T05:34:53.520Z,41.10
2023-01-25T05:37:22.734Z,36.07
2023-01-25T05:40:01.242Z,34.50
2023-01-25T05:42:32.614Z,40.53
2023-01-25T05:45:01.209Z,41.47
2023-01-25T05:47:30.728Z,36.10
2023-01-25T05:49:58.630Z,38.77
2023-01-25T05:52:40.202Z,44.30
2023-01-25T05:55:09.040Z,36.07
2023-01-25T05:57:37.009Z,42.50
2023-01-25T06:00:08.047Z,48.20
2023-01-25T06:02:41.234Z,46.90
2023-01-25T06:05:12.569Z,41.83
2023-01-25T06:07:41.039Z,49.00
2023-01-25T06:10:10.342Z,44.00
2023-01-25T06:12:39.918Z,44.60
2023-01-25T06:15:09.856Z,43.67
2023-01-25T06:17:37.819Z,47.40
2023-01-25T06:20:35.297Z,48.77
2023-01-25T06:23:06.170Z,48.50
2023-01-25T06:25:33.997Z,48.90
2023-01-25T06:28:01.648Z,50.60
2023-01-25T06:30:29.541Z,41.70
2023-01-25T06:32:59.931Z,43.57
2023-01-25T06:35:29.256Z,47.30
2023-01-25T06:37:58.696Z,43.33
2023-01-25T06:40:29.641Z,46.87
2023-01-25T06:43:09.201Z,44.53
2023-01-25T06:45:37.051Z,44.00
2023-01-25T06:48:05.628Z,47.33
2023-01-25T06:50:33.488Z,47.53
2023-01-25T06:53:01.535Z,49.17
2023-01-25T06:55:29.670Z,51.37
2023-01-25T06:58:01.717Z,55.50
2023-01-25T07:00:29.537Z,51.70
2023-01-25T07:02:57.253Z,56.37
2023-01-25T07:05:25.283Z,49.30
2023-01-25T07:07:53.037Z,45.53
2023-01-25T07:10:20.855Z,53.10
2023-01-25T07:12:48.505Z,48.80
2023-01-25T07:15:16.336Z,47.07
2023-01-25T07:17:44.046Z,48.03
2023-01-25T07:20:13.658Z,55.40
2023-01-25T07:22:41.476Z,52.53
2023-01-25T07:25:10.568Z,53.90
2023-01-25T07:27:38.376Z,52.10
2023-01-25T07:30:07.552Z,55.43
2023-01-25T07:32:35.297Z,54.83
2023-01-25T07:35:03.098Z,57.40
2023-01-25T07:37:30.917Z,55.77
2023-01-25T07:39:58.596Z,61.83
2023-01-25T07:42:26.539Z,59.97
2023-01-25T07:45:12.321Z,58.53
2023-01-25T07:47:40.209Z,55.73
2023-01-25T07:50:09.714Z,57.77
2023-01-25T07:52:38.175Z,55.83
2023-01-25T07:55:07.460Z,55.70
2023-01-25T07:57:35.480Z,48.57
2023-01-25T08:00:04.371Z,53.70
2023-01-25T08:02:41.142Z,61.33
2023-01-25T08:05:10.951Z,65.23
2023-01-25T08:07:39.217Z,54.47
2023-01-25T08:10:08.116Z,53.60
2023-01-25T08:12:36.067Z,56.60
2023-01-25T08:15:04.866Z,48.00
2023-01-25T08:17:33.356Z,51.63
2023-01-25T08:20:01.769Z,49.90
2023-01-25T08:22:29.639Z,45.17
2023-01-25T08:24:57.353Z,50.47
2023-01-25T08:27:25.134Z,45.50
2023-01-25T08:29:54.007Z,46.53
2023-01-25T08:32:21.995Z,48.00
2023-01-25T08:34:49.744Z,50.27
2023-01-25T08:37:17.644Z,48.20
2023-01-25T08:39:45.467Z,54.37
2023-01-25T08:42:13.150Z,49.07
2023-01-25T08:44:41.005Z,47.97
2023-01-25T08:47:08.720Z,51.17
2023-01-25T08:49:36.393Z,55.90
2023-01-25T08:52:04.489Z,56.23
2023-01-25T08:54:32.381Z,61.03
2023-01-25T08:57:02.474Z,52.03
2023-01-25T08:59:30.667Z,56.90
2023-01-25T09:01:58.450Z,55.40
2023-01-25T09:04:28.466Z,58.37
2023-01-25T09:06:56.419Z,60.20
2023-01-25T09:09:25.042Z,56.57
2023-01-25T09:11:53.039Z,62.07
2023-01-25T09:14:20.764Z,62.70
2023-01-25T09:16:48.646Z,61.77
2023-01-25T09:19:16.350Z,58.17
2023-01-25T09:21:44.834Z,59.67
2023-01-25T09:24:12.596Z,59.60
2023-01-25T09:26:50.044Z,65.60
2023-01-25T09:29:23.810Z,67.73
2023-01-25T09:31:52.536Z,60.80
2023-01-25T09:34:46.356Z,54.37
2023-01-25T09:37:14.035Z,62.83
2023-01-25T09:39:41.938Z,69.47
2023-01-25T09:42:51.690Z,60.93
2023-01-25T09:45:34.780Z,63.97
2023-01-25T09:48:42.562Z,67.70
2023-01-25T09:52:03.150Z,60.93
2023-01-25T09:54:47.167Z,68.73
2023-01-25T09:57:39.970Z,60.40
2023-01-25T10:00:42.493Z,62.63
2023-01-25T10:03:48.331Z,62.13
2023-01-25T10:06:24.435Z,62.47
2023-01-25T10:09:53.308Z,59.60
2023-01-25T10:12:27.317Z,65.37
2023-01-25T10:14:55.496Z,67.43
2023-01-25T10:18:03.931Z,64.57
2023-01-25T10:20:58.760Z,70.97
2023-01-25T10:24:12.902Z,70.60
2023-01-25T10:26:52.616Z,67.27
2023-01-25T10:29:38.179Z,71.13
2023-01-25T10:32:35.786Z,72.43
2023-01-25T10:35:35.329Z,77.40
2023-01-25T10:38:27.788Z,76.60
2023-01-25T10:41:29.226Z,82.00
2023-01-25T10:44:15.941Z,68.00
2023-01-25T10:47:35.263Z,71.53
2023-01-25T10:50:04.144Z,73.93
2023-01-25T10:52:38.143Z,75.47
2023-01-25T10:55:18.855Z,82.60
2023-01-25T10:57:58.148Z,83.70
2023-01-25T11:00:40.334Z,81.03
2023-01-25T11:03:31.308Z,81.17
2023-01-25T11:06:09.820Z,74.77
2023-01-25T11:08:43.510Z,74.80
2023-01-25T11:11:41.490Z,75.83
2023-01-25T11:14:19.455Z,70.83
2023-01-25T11:16:49.362Z,81.27
2023-01-25T11:19:40.666Z,71.67
2023-01-25T11:22:22.181Z,72.03
2023-01-25T11:24:50.337Z,80.93
2023-01-25T11:27:28.101Z,76.43
2023-01-25T11:30:17.386Z,67.93
2023-01-25T11:32:45.599Z,77.63
2023-01-25T11:35:32.126Z,66.00
2023-01-25T11:38:23.528Z,69.70
2023-01-25T11:42:04.635Z,73.53
2023-01-25T11:45:08.868Z,77.60
2023-01-25T11:49:15.812Z,62.27
2023-01-25T11:52:39.402Z,91.03
2023-01-25T11:55:38.221Z,82.70
2023-01-25T11:58:51.059Z,73.03
2023-01-25T12:02:14.917Z,81.93
2023-01-25T12:05:39.196Z,79.90
2023-01-25T12:08:43.183Z,83.07
2023-01-25T12:11:57.082Z,75.77
2023-01-25T12:14:55.849Z,83.17
2023-01-25T12:18:34.585Z,80.07
2023-01-25T12:21:46.339Z,70.10
2023-01-25T12:25:08.394Z,69.47
2023-01-25T12:28:24.141Z,67.63
2023-01-25T12:31:30.734Z,70.33
2023-01-25T12:34:20.113Z,77.03
2023-01-25T12:36:50.948Z,86.93
2023-01-25T12:39:56.299Z,92.43
2023-01-25T12:42:46.909Z,78.80
2023-01-25T12:45:28.211Z,74.70
2023-01-25T12:48:36.799Z,89.33
2023-01-25T12:51:05.113Z,91.67
2023-01-25T12:53:49.572Z,86.80
2023-01-25T12:56:55.032Z,87.93
2023-01-25T13:00:07.165Z,76.37
2023-01-25T13:03:18.423Z,89.60
2023-01-25T13:06:22.057Z,86.80
2023-01-25T13:09:44.438Z,92.57
2023-01-25T13:12:13.157Z,88.77
2023-01-25T13:14:43.289Z,77.10
2023-01-25T13:17:34.917Z,86.30
2023-01-25T13:20:39.674Z,80.20
2023-01-25T13:23:36.120Z,93.40
2023-01-25T13:26:22.334Z,89.27
2023-01-25T13:28:58.440Z,96.03
2023-01-25T13:31:58.957Z,93.10
2023-01-25T13:34:36.451Z,95.57
2023-01-25T13:37:26.511Z,84.07
2023-01-25T13:40:06.453Z,95.47
2023-01-25T13:42:39.593Z,88.27
2023-01-25T13:45:22.504Z,86.87
2023-01-25T13:48:19.498Z,85.53
2023-01-25T13:51:04.624Z,85.30
2023-01-25T13:53:35.405Z,93.53
2023-01-25T13:56:04.100Z,91.30
2023-01-25T13:58:48.112Z,94.07
2023-01-25T14:01:23.791Z,85.30
2023-01-25T14:04:02.182Z,88.27
2023-01-25T14:06:38.888Z,95.90
2023-01-25T14:09:20.682Z,84.70
2023-01-25T14:12:04.249Z,87.90
2023-01-25T14:14:37.164Z,78.60
2023-01-25T14:17:23.904Z,79.83
2023-01-25T14:19:56.804Z,81.90
2023-01-25T14:22:31.946Z,87.80
2023-01-25T14:25:18.900Z,81.27
2023-01-25T14:27:56.612Z,83.80
2023-01-25T14:30:31.924Z,87.53
2023-01-25T14:33:17.242Z,98.43
2023-01-25T14:36:00.071Z,73.67
2023-01-25T14:38:42.254Z,83.80
2023-01-25T14:41:48.764Z,82.57
2023-01-25T14:44:29.803Z,76.40
2023-01-25T14:47:32.883Z,75.47
2023-01-25T14:51:11.874Z,83.47
2023-01-25T14:53:50.987Z,84.17
2023-01-25T14:56:56.601Z,84.40
2023-01-25T14:59:44.779Z,88.10
2023-01-25T15:02:48.180Z,75.43
2023-01-25T15:05:31.610Z,75.03
2023-01-25T15:08:08.446Z,68.57
2023-01-25T15:10:54.338Z,73.77
2023-01-25T15:13:28.560Z,82.43
2023-01-25T15:16:06.055Z,83.43
2023-01-25T15:18:52.245Z,87.13
2023-01-25T15:21:29.487Z,82.40
2023-01-25T15:24:06.545Z,87.67
2023-01-25T15:26:36.564Z,78.03
2023-01-25T15:29:23.702Z,74.47
2023-01-25T15:31:54.697Z,67.43
2023-01-25T15:34:35.227Z,71.23
2023-01-25T15:37:03.030Z,76.80
2023-01-25T15:39:32.761Z,94.43
2023-01-25T15:42:00.733Z,77.73
2023-01-25T15:44:28.345Z,85.03
2023-01-25T15:46:56.792Z,95.17
2023-01-25T15:49:31.773Z,88.20
2023-01-25T15:51:59.968Z,85.27
2023-01-25T15:54:30.386Z,90.97
2023-01-25T15:57:01.162Z,86.20
2023-01-25T15:59:29.455Z,84.40
2023-01-25T16:01:57.249Z,86.50
2023-01-25T16:04:27.028Z,85.00
2023-01-25T16:06:55.671Z,94.23
2023-01-25T16:09:31.055Z,83.90
2023-01-25T16:12:02.475Z,83.60
2023-01-25T16:14:31.762Z,82.93
2023-01-25T16:17:05.665Z,86.70
2023-01-25T16:19:34.326Z,86.80
2023-01-25T16:22:02.329Z,94.90
2023-01-25T16:24:30.377Z,96.93
2023-01-25T16:27:01.160Z,95.47
2023-01-25T16:29:28.821Z,99.03
2023-01-25T16:31:57.822Z,101.07
2023-01-25T16:34:25.791Z,92.13
2023-01-25T16:36:54.235Z,95.27
2023-01-25T16:39:28.318Z,102.50
2023-01-25T16:41:57.725Z,88.67
2023-01-25T16:44:25.790Z,92.67
2023-01-25T16:46:53.945Z,78.80
2023-01-25T16:49:30.707Z,95.97
2023-01-25T16:52:02.778Z,83.37
2023-01-25T16:54:30.738Z,100.67
2023-01-25T16:56:59.932Z,91.53
2023-01-25T16:59:29.592Z,91.70
2023-01-25T17:01:57.426Z,78.63
2023-01-25T17:04:25.187Z,92.93
2023-01-25T17:06:53.229Z,91.07
2023-01-25T17:09:24.398Z,99.70
2023-01-25T17:11:55.524Z,94.63
2023-01-25T17:14:24.288Z,90.40
2023-01-25T17:16:55.350Z,97.83
2023-01-25T17:19:23.849Z,95.87
2023-01-25T17:21:51.917Z,91.13
2023-01-25T17:24:21.939Z,80.97
2023-01-25T17:26:51.340Z,90.07
2023-01-25T17:29:19.372Z,87.80
2023-01-25T17:31:47.259Z,81.93
2023-01-25T17:34:19.568Z,79.53
2023-01-25T17:36:49.871Z,86.90
2023-01-25T17:39:21.010Z,80.10
2023-01-25T17:41:51.904Z,87.77
2023-01-25T17:44:25.013Z,82.93
2023-01-25T17:46:53.352Z,85.93
2023-01-25T17:49:22.779Z,85.93
2023-01-25T17:51:50.901Z,82.60
2023-01-25T17:54:18.970Z,76.70
2023-01-25T17:56:46.989Z,80.47
2023-01-25T17:59:14.984Z,82.70
2023-01-25T18:01:43.210Z,85.90
2023-01-25T18:04:13.430Z,89.83
2023-01-25T18:06:41.901Z,83.57
2023-01-25T18:09:10.369Z,77.23
2023-01-25T18:11:41.083Z,92.50
2023-01-25T18:14:17.001Z,84.93
2023-01-25T18:16:45.112Z,83.27
2023-01-25T18:19:13.784Z,81.93
2023-01-25T18:21:43.426Z,88.90
2023-01-25T18:24:36.196Z,87.13
2023-01-25T18:27:34.357Z,81.37
2023-01-25T18:30:40.176Z,88.57
2023-01-25T18:33:08.743Z,89.17
2023-01-25T18:35:36.805Z,77.90
2023-01-25T18:38:04.742Z,88.70
2023-01-25T18:40:32.592Z,88.27
2023-01-25T18:43:00.474Z,88.07
2023-01-25T18:45:28.397Z,81.73
2023-01-25T18:47:56.208Z,87.73
2023-01-25T18:50:24.160Z,87.90
2023-01-25T18:52:51.910Z,92.60
2023-01-25T18:55:19.614Z,82.20
2023-01-25T18:57:47.433Z,79.10
2023-01-25T19:00:17.305Z,77.17
2023-01-25T19:02:45.577Z,82.80
2023-01-25T19:05:14.385Z,82.30
2023-01-25T19:07:42.343Z,84.93
2023-01-25T19:10:11.844Z,71.23
2023-01-25T19:12:39.945Z,90.23
2023-01-25T19:15:09.340Z,86.63
2023-01-25T19:17:38.341Z,86.23
2023-01-25T19:20:06.923Z,88.03
2023-01-25T19:22:34.729Z,82.43
2023-01-25T19:25:02.713Z,81.67
2023-01-25T19:27:30.435Z,88.30
2023-01-25T19:29:58.329Z,95.30
2023-01-25T19:32:26.037Z,92.77
2023-01-25T19:34:53.758Z,90.60
2023-01-25T19:37:21.459Z,97.23
2023-01-25T19:39:49.329Z,102.43
2023-01-25T19:42:18.633Z,96.23
2023-01-25T19:44:48.254Z,98.97
2023-01-25T19:47:16.072Z,109.23
2023-01-25T19:49:43.841Z,109.80
2023-01-25T19:52:11.593Z,99.57
2023-01-25T19:54:39.438Z,103.13
2023-01-25T19:57:07.144Z,93.97
2023-01-25T19:59:34.918Z,105.23
2023-01-25T20:02:02.890Z,101.60
2023-01-25T20:04:32.427Z,106.17
2023-01-25T20:07:00.516Z,106.73
2023-01-25T20:09:28.764Z,97.83
2023-01-25T20:11:58.600Z,97.33
2023-01-25T20:14:29.965Z,108.37
2023-01-25T20:16:58.233Z,104.83
2023-01-25T20:19:26.057Z,98.83
2023-01-25T20:21:53.772Z,106.23
2023-01-25T20:24:22.608Z,99.20
2023-01-25T20:26:51.357Z,95.57
2023-01-25T20:29:20.303Z,90.97
2023-01-25T20:31:48.572Z,93.23
2023-01-25T20:34:23.983Z,120.77
2023-01-25T20:36:52.863Z,93.10
2023-01-25T20:39:23.645Z,111.83
2023-01-25T20:41:53.842Z,104.63
2023-01-25T20:44:23.229Z,105.50
2023-01-25T20:46:53.266Z,92.90
2023-01-25T20:49:21.487Z,99.77
2023-01-25T20:51:50.197Z,104.57
2023-01-25T20:54:20.746Z,118.60
2023-01-25T20:56:50.543Z,99.67
2023-01-25T20:59:19.488Z,105.30
2023-01-25T21:01:47.878Z,89.43
2023-01-25T21:04:16.431Z,107.80
2023-01-25T21:06:44.344Z,117.23
2023-01-25T21:09:13.137Z,107.00
2023-01-25T21:11:41.689Z,123.63
2023-01-25T21:14:09.673Z,109.07
2023-01-25T21:16:37.744Z,121.17
2023-01-25T21:19:07.863Z,106.43
2023-01-25T21:21:36.390Z,124.77
2023-01-25T21:24:06.071Z,129.47
2023-01-25T21:26:38.042Z,130.30
2023-01-25T21:29:08.176Z,113.77
2023-01-25T21:31:44.759Z,122.27
2023-01-25T21:34:13.019Z,122.50
2023-01-25T21:36:41.297Z,105.83
2023-01-25T21:39:09.411Z,126.27
2023-01-25T21:41:37.251Z,136.17
2023-01-25T21:44:23.803Z,123.97
2023-01-25T21:47:23.276Z,133.17
2023-01-25T21:49:58.940Z,125.73
2023-01-25T21:52:26.722Z,142.40
2023-01-25T21:54:54.549Z,133.43
2023-01-25T21:57:22.385Z,146.93
2023-01-25T21:59:52.544Z,134.03
2023-01-25T22:02:21.734Z,141.10
2023-01-25T22:04:50.167Z,132.80
2023-01-25T22:07:18.307Z,128.03
2023-01-25T22:09:46.382Z,135.20
2023-01-25T22:12:14.245Z,122.47
2023-01-25T22:14:42.236Z,146.67
2023-01-25T22:17:09.956Z,150.47
2023-01-25T22:19:37.886Z,153.90
2023-01-25T22:22:05.857Z,124.77
2023-01-25T22:24:34.039Z,147.97
2023-01-25T22:27:46.207Z,133.77
2023-01-25T22:30:14.615Z,142.40
2023-01-25T22:32:42.675Z,139.00
2023-01-25T22:35:10.487Z,144.17
2023-01-25T22:37:38.310Z,140.30
2023-01-25T22:40:08.754Z,152.90
2023-01-25T22:42:36.985Z,160.20
2023-01-25T22:45:09.443Z,124.37
2023-01-25T22:47:53.222Z,127.73
2023-01-25T22:50:24.176Z,138.80
2023-01-25T22:52:53.541Z,135.50
2023-01-25T22:55:21.722Z,135.97
2023-01-25T22:57:50.266Z,131.20
2023-01-25T23:00:19.285Z,126.00
2023-01-25T23:02:47.546Z,123.97
2023-01-25T23:05:16.024Z,154.90
2023-01-25T23:07:44.204Z,117.10
2023-01-25T23:10:12.705Z,116.60
2023-01-25T23:12:40.908Z,118.53
2023-01-25T23:15:15.655Z,100.33
2023-01-25T23:18:03.741Z,109.30
2023-01-25T23:20:35.181Z,100.70
2023-01-25T23:23:04.594Z,105.83
2023-01-25T23:25:32.884Z,112.23
2023-01-25T23:28:00.946Z,115.83
2023-01-25T23:30:28.815Z,102.17
2023-01-25T23:32:56.579Z,116.67
2023-01-25T23:35:24.546Z,124.80
2023-01-25T23:37:52.378Z,118.23
2023-01-25T23:40:20.273Z,121.47
2023-01-25T23:42:48.139Z,113.67
2023-01-25T23:45:16.222Z,121.00
2023-01-25T23:47:43.960Z,130.53
2023-01-25T23:50:12.897Z,122.20
2023-01-25T23:52:41.210Z,115.27
2023-01-25T23:55:11.375Z,127.60
2023-01-25T23:57:39.328Z,119.57
